Empire, Georgia
Current Conditions -  °F | °C
As of 5:55 PM on Saturday 20 Dec 2014 (Local Time) from KEZM Reporting Station
Overcast Overcast  
Wind Chill: 55°   Ceiling: 2300
Heat Index: 55°   Visibility: 10mi
Dew Point: 55°   Wind: 0mph
Humidity: 100%   Direction: NA
Pressure: 30.17"   Gusts: NA
Location:  32.4223°N, 83.3103°W
Report Text: KEZM 202255Z AUTO 00000KT 10SM OVC023 13/13 A3017 RMK AO2 T01300130
Loading
Personal Weather Stations






























Interactive Weather Map New forecast layout! Learn more

10-Day Weather Forecast

Advertisements
Track Severe Weather on mobile